LSZS/SMV METAR and TAF weather

Enter ICAO airport designator
Station Type Date Time Source
LSZS METAR 2020/09/22 00:50 UTC NOAA

LSZS 220050Z AUTO 00000KT 9999 FEW024 BKN034 BKN038 07/07 Q1020


Station Type Date Time Source
LSZS Decoded METAR 2020/09/22 00:50 UTC NOAA

Station name not available
Sep 21, 2020 - 08:50 PM EDT / 2020.09.22 0050 UTC
Wind: Calm:0
Visibility: greater than 7 mile(s):0
Sky conditions: mostly cloudy
Temperature: 44 F (7 C)
Dew Point: 44 F (7 C)
Relative Humidity: 100%
Pressure (altimeter): 30.12 in. Hg (1020 hPa)
ob: LSZS 220050Z AUTO 00000KT 9999 FEW024 BKN034 BKN038 07/07 Q1020
cycle: 1

Station Type Date Time Source
LSZS TAF 2014/12/22 20:03 UTC NOAA

TAF
AMD LSZS 222054Z 2220/2224 CNL

Example: see airport list